Where is Igreja Mediaval in Portugal?

Igreja Mediaval is situated in the region Santarem in Portugal!

Search the name of a city:

Igreja Matiz de Almendra, Igrexa Parroquial de San Martín de Andrade, Igrekovo, Igreja, Igreja de Matosinhos

Here you will find the location of Igreja Mediaval on a map.
To see how it currently looks like outside, below are some pictures of the area from online web cameras.
You can also find the distance to the main cities in the region and to cities in the rest of Portugal.

All places in the world called .

new

Where is Igreja Mediaval on the map?


Webcams near Igreja Mediaval

Vasco Carão > South: Garrocheira, Benavente - Airport.


Vasco Carão > South: Garrocheira, Benavente - Airport - Day time
Current
Vasco Carão > South: Garrocheira, Benavente - Airport - Current

Benavente > North-East: AIrport, METAR: BENAV 180005Z 36004KT 17/14 Q1015.


Benavente > North-East: AIrport, METAR: BENAV 180005Z 36004KT 17/14 Q1015 - Day time
Current
Benavente > North-East: AIrport, METAR: BENAV 180005Z 36004KT 17/14 Q1015 - Current

Caldas da Rainha.


Caldas da Rainha - Day time
Current
Caldas da Rainha - Current

Webcams provided by webcams.travel

Distances

Where is Igreja Mediaval relative to other places?

Top 10 cities in Santarem and distance from Igreja Mediaval.

City#Populationkmmiles
Santarém1293851610
Entroncamento2198874830
Tomar3191686339
Torres Novas4145264528
Samora Correia5141542415
Abrantes6136466641
Ourém7127296037
Rio Maior8120642314
Fátima9117985534
Almeirim10115562113

Top 10 cities in Portugal and distance from Igreja Mediaval.

City # Populationkmmiles
Lisbon15177985534
Porto2249630224139
Amadora31788565534
Braga4121393269167
Setúbal51171096943
Coimbra610658012276
Queluz71033985635
Funchal8980411025637
Vila Nova de Gaia970810222138
Loures10662304528

Alerts and advice Portugal

Advice and information about traveling and security in Portugal.

With a travel advise, tourists can be informed about security risks during traveling or vacation in a foreign country. Be informed about the risks of kidnapping, armed robbery, bombings, natural disasters or war. Know which areas are unsafe in Portugalo. Be vigilant, or avoid certain areas when on vacation in Portugal.

Alerts and advice



Travel information Portugal

Information on travel documents, visa applications and the cost of a visa.
Contact information of embassies in Portugal.
Different types of travel insurance.

Travel information